createdAt,value
2022-11-17T01:14:05.180Z,2.97
2022-11-17T01:16:33.972Z,3.47
2022-11-17T01:19:04.583Z,3.28
2022-11-17T01:21:33.562Z,3.40
2022-11-17T01:24:03.698Z,3.20
2022-11-17T01:26:33.381Z,2.92
2022-11-17T01:29:03.563Z,2.87
2022-11-17T01:31:33.946Z,2.97
2022-11-17T01:34:02.300Z,2.90
2022-11-17T01:36:53.075Z,2.95
2022-11-17T01:41:48.187Z,2.83
2022-11-17T01:44:34.787Z,3.10
2022-11-17T01:47:03.551Z,3.63
2022-11-17T01:49:31.965Z,2.38
2022-11-17T01:52:05.617Z,2.85
2022-11-17T01:54:35.778Z,2.75
2022-11-17T01:57:08.259Z,2.63
2022-11-17T01:59:38.201Z,2.50
2022-11-17T02:02:06.083Z,2.58
2022-11-17T02:04:36.172Z,2.33
2022-11-17T02:07:09.281Z,2.40
2022-11-17T02:09:38.794Z,2.13
2022-11-17T02:12:07.404Z,3.00
2022-11-17T02:14:35.915Z,2.60
2022-11-17T02:17:11.600Z,2.20
2022-11-17T02:19:43.014Z,1.90
2022-11-17T02:22:10.750Z,1.85
2022-11-17T02:24:58.616Z,1.70
2022-11-17T02:27:28.416Z,1.77
2022-11-17T02:29:56.032Z,1.93
2022-11-17T02:32:27.970Z,2.08
2022-11-17T02:35:00.747Z,2.03
2022-11-17T02:37:41.330Z,1.67
2022-11-17T02:43:00.240Z,1.90
2022-11-17T02:45:32.529Z,1.92
2022-11-17T02:48:03.754Z,1.67
2022-11-17T02:50:32.779Z,1.52
2022-11-17T02:53:00.662Z,2.22
2022-11-17T02:55:35.743Z,2.38
2022-11-17T02:58:04.987Z,2.38
2022-11-17T03:00:35.854Z,1.90
2022-11-17T03:03:23.822Z,2.05
2022-11-17T03:06:04.755Z,1.90
2022-11-17T03:08:35.608Z,1.70
2022-11-17T03:11:07.004Z,1.77
2022-11-17T03:13:56.749Z,1.83
2022-11-17T03:16:49.716Z,2.13
2022-11-17T03:19:20.510Z,1.52
2022-11-17T03:21:54.585Z,1.50
2022-11-17T03:24:22.318Z,1.50
2022-11-17T03:26:53.474Z,1.75
2022-11-17T03:29:23.915Z,1.55
2022-11-17T03:34:23.229Z,1.98
2022-11-17T03:36:53.766Z,1.95
2022-11-17T03:39:23.997Z,1.80
2022-11-17T03:41:55.717Z,1.85
2022-11-17T03:44:25.426Z,1.73
2022-11-17T03:46:54.998Z,1.88
2022-11-17T03:49:44.741Z,1.45
2022-11-17T03:52:12.990Z,1.45
2022-11-17T03:54:41.566Z,1.60
2022-11-17T03:57:15.366Z,1.20
2022-11-17T03:59:58.368Z,1.60
2022-11-17T04:02:27.319Z,1.30
2022-11-17T04:05:07.507Z,1.20
2022-11-17T04:07:40.330Z,1.27
2022-11-17T04:10:09.308Z,1.38
2022-11-17T04:12:55.617Z,1.80
2022-11-17T04:15:41.986Z,1.30
2022-11-17T04:18:09.758Z,1.48
2022-11-17T04:20:37.650Z,1.40
2022-11-17T04:23:18.864Z,1.75
2022-11-17T04:26:06.857Z,1.50
2022-11-17T04:28:37.752Z,1.70
2022-11-17T04:31:10.533Z,2.00
2022-11-17T04:33:39.254Z,2.00
2022-11-17T04:36:07.629Z,1.80
2022-11-17T04:38:37.273Z,2.00
2022-11-17T04:41:28.175Z,2.22
2022-11-17T04:43:56.376Z,2.50
2022-11-17T04:46:25.140Z,2.45
2022-11-17T04:48:57.016Z,2.22
2022-11-17T04:51:25.101Z,2.40
2022-11-17T04:53:53.676Z,2.20
2022-11-17T04:56:22.267Z,2.90
2022-11-17T04:58:50.724Z,2.70
2022-11-17T05:01:19.238Z,2.40
2022-11-17T05:03:48.962Z,2.20
2022-11-17T05:06:17.970Z,2.13
2022-11-17T05:08:46.336Z,2.15
2022-11-17T05:11:34.157Z,1.92
2022-11-17T05:14:02.865Z,1.80
2022-11-17T05:16:50.254Z,1.45
2022-11-17T05:19:19.501Z,1.30
2022-11-17T05:21:48.236Z,1.73
2022-11-17T05:24:16.247Z,1.77
2022-11-17T05:26:44.747Z,1.70
2022-11-17T05:29:13.946Z,1.30
2022-11-17T05:31:45.082Z,1.52
2022-11-17T05:34:13.928Z,1.40
2022-11-17T05:36:42.988Z,1.25
2022-11-17T05:39:11.454Z,1.48
2022-11-17T05:41:39.136Z,1.95
2022-11-17T05:44:06.959Z,1.33
2022-11-17T05:46:35.324Z,1.40
2022-11-17T05:49:03.850Z,1.10
2022-11-17T05:51:33.513Z,1.63
2022-11-17T05:54:02.548Z,1.50
2022-11-17T05:56:45.016Z,1.33
2022-11-17T05:59:36.629Z,1.42
2022-11-17T06:02:23.944Z,2.05
2022-11-17T06:04:52.808Z,1.50
2022-11-17T06:07:21.121Z,1.58
2022-11-17T06:09:49.233Z,1.95
2022-11-17T06:12:17.683Z,1.80
2022-11-17T06:14:45.426Z,1.75
2022-11-17T06:17:36.046Z,1.88
2022-11-17T06:22:36.646Z,2.40
2022-11-17T06:25:09.624Z,1.80
2022-11-17T06:27:38.622Z,1.90
2022-11-17T06:30:06.934Z,1.70
2022-11-17T06:32:36.601Z,1.73
2022-11-17T06:35:07.225Z,1.60
2022-11-17T06:40:03.473Z,1.60
2022-11-17T06:42:49.892Z,2.00
2022-11-17T06:45:18.278Z,1.98
2022-11-17T06:47:46.460Z,1.90
2022-11-17T06:50:14.715Z,2.20
2022-11-17T06:52:42.762Z,1.88
2022-11-17T06:55:10.691Z,1.75
2022-11-17T06:57:38.654Z,1.52
2022-11-17T07:00:07.104Z,1.73
2022-11-17T07:02:35.193Z,2.03
2022-11-17T07:05:03.433Z,1.98
2022-11-17T07:07:34.248Z,1.35
2022-11-17T07:10:02.430Z,1.33
2022-11-17T07:12:30.353Z,1.63
2022-11-17T07:14:58.140Z,1.60
2022-11-17T07:17:26.578Z,1.83
2022-11-17T07:19:55.243Z,1.75
2022-11-17T07:22:28.047Z,1.70
2022-11-17T07:24:55.874Z,1.63
2022-11-17T07:27:24.098Z,1.60
2022-11-17T07:29:52.205Z,2.42
2022-11-17T07:32:20.118Z,1.85
2022-11-17T07:34:47.918Z,1.50
2022-11-17T07:37:15.989Z,1.40
2022-11-17T07:39:43.762Z,1.30
2022-11-17T07:42:11.653Z,1.45
2022-11-17T07:44:39.434Z,1.63
2022-11-17T07:47:07.224Z,1.58
2022-11-17T07:49:34.996Z,1.35
2022-11-17T07:52:05.761Z,1.08
2022-11-17T07:54:36.746Z,1.20
2022-11-17T07:57:05.439Z,1.33
2022-11-17T07:59:34.528Z,1.30
2022-11-17T08:02:03.117Z,1.27
2022-11-17T08:04:31.013Z,1.23
2022-11-17T08:07:00.022Z,1.60
2022-11-17T08:09:28.040Z,1.30
2022-11-17T08:11:57.928Z,1.30
2022-11-17T08:14:26.207Z,1.10
2022-11-17T08:16:53.939Z,1.10
2022-11-17T08:19:21.663Z,1.20
2022-11-17T08:21:51.339Z,1.15
2022-11-17T08:24:19.604Z,1.50
2022-11-17T08:26:47.413Z,1.25
2022-11-17T08:29:15.186Z,1.38
2022-11-17T08:31:47.651Z,1.00
2022-11-17T08:34:15.352Z,1.45
2022-11-17T08:36:43.346Z,1.25
2022-11-17T08:39:12.195Z,1.15
2022-11-17T08:41:40.076Z,1.02
2022-11-17T08:44:08.216Z,1.38
2022-11-17T08:46:36.282Z,1.15
2022-11-17T08:49:08.662Z,1.00
2022-11-17T08:51:37.095Z,0.98
2022-11-17T08:54:04.839Z,0.90
2022-11-17T08:56:34.290Z,0.88
2022-11-17T08:59:03.261Z,1.00
2022-11-17T09:01:31.979Z,0.90
2022-11-17T09:03:59.868Z,0.93
2022-11-17T09:06:28.361Z,0.88
2022-11-17T09:08:56.835Z,1.10
2022-11-17T09:11:25.459Z,0.73
2022-11-17T09:13:53.971Z,1.05
2022-11-17T09:16:24.176Z,0.80
2022-11-17T09:18:57.282Z,0.93
2022-11-17T09:21:26.298Z,0.82
2022-11-17T09:23:54.901Z,0.95
2022-11-17T09:26:23.163Z,1.00
2022-11-17T09:28:50.789Z,1.05
2022-11-17T09:31:20.300Z,0.82
2022-11-17T09:33:48.495Z,1.00
2022-11-17T09:36:16.985Z,0.90
2022-11-17T09:38:46.893Z,0.88
2022-11-17T09:41:17.936Z,1.27
2022-11-17T09:44:04.634Z,1.05
2022-11-17T09:46:38.556Z,1.10
2022-11-17T09:49:13.591Z,0.63
2022-11-17T09:51:44.178Z,0.95
2022-11-17T09:54:18.273Z,0.90
2022-11-17T09:56:47.560Z,1.48
2022-11-17T09:59:18.446Z,0.70
2022-11-17T10:01:46.115Z,1.08
2022-11-17T10:04:20.120Z,1.00
2022-11-17T10:06:50.619Z,1.10
2022-11-17T10:11:52.397Z,1.10
2022-11-17T10:14:23.457Z,0.95
2022-11-17T10:16:53.100Z,0.80
2022-11-17T10:19:26.053Z,1.00
2022-11-17T10:21:56.370Z,0.98
2022-11-17T10:24:39.754Z,0.90
2022-11-17T10:27:19.908Z,1.08
2022-11-17T10:29:56.980Z,1.00
2022-11-17T10:32:26.896Z,0.98
2022-11-17T10:34:55.282Z,1.10
2022-11-17T10:37:25.597Z,0.90
2022-11-17T10:40:03.761Z,0.85
2022-11-17T10:42:34.526Z,0.95
2022-11-17T10:45:03.759Z,1.13
2022-11-17T10:47:33.924Z,0.90
2022-11-17T10:50:20.961Z,0.98
2022-11-17T10:52:49.223Z,1.52
2022-11-17T10:55:35.406Z,0.80
2022-11-17T10:58:06.373Z,0.95
2022-11-17T11:00:35.474Z,1.23
2022-11-17T11:03:25.033Z,1.85
2022-11-17T11:05:58.792Z,0.82
2022-11-17T11:08:30.048Z,0.85
2022-11-17T11:10:59.737Z,0.85
2022-11-17T11:13:47.037Z,0.82
2022-11-17T11:16:14.957Z,1.00
2022-11-17T11:18:42.691Z,0.93
2022-11-17T11:21:26.633Z,0.82
2022-11-17T11:24:06.859Z,1.02
2022-11-17T11:26:48.678Z,0.80
2022-11-17T11:29:35.048Z,1.23
2022-11-17T11:32:06.043Z,0.65
2022-11-17T11:34:44.579Z,0.90
2022-11-17T11:37:13.630Z,0.80
2022-11-17T11:39:41.478Z,0.85
2022-11-17T11:42:12.267Z,0.93
2022-11-17T11:44:52.585Z,0.77
2022-11-17T11:47:20.468Z,1.00
2022-11-17T11:50:06.859Z,0.80
2022-11-17T11:52:36.867Z,0.90
2022-11-17T11:55:23.508Z,1.55
2022-11-17T11:58:04.194Z,0.98
2022-11-17T12:00:33.655Z,1.23
2022-11-17T12:03:22.059Z,0.95
2022-11-17T12:06:29.625Z,1.38
2022-11-17T12:09:04.814Z,1.17
2022-11-17T12:11:56.985Z,0.93
2022-11-17T12:14:24.663Z,0.85
2022-11-17T12:17:14.831Z,0.68
2022-11-17T12:19:45.816Z,1.08
2022-11-17T12:22:35.133Z,1.02
2022-11-17T12:25:15.153Z,0.90
2022-11-17T12:27:44.418Z,0.75
2022-11-17T12:30:38.702Z,0.93
2022-11-17T12:33:09.197Z,0.70
2022-11-17T12:35:37.893Z,1.00
2022-11-17T12:38:23.183Z,0.90
2022-11-17T12:40:51.931Z,0.80
2022-11-17T12:43:20.875Z,0.90
2022-11-17T12:46:00.608Z,0.77
2022-11-17T12:48:39.674Z,0.87
2022-11-17T12:51:07.997Z,0.70
2022-11-17T12:53:35.697Z,0.80
2022-11-17T12:56:23.239Z,0.75
2022-11-17T12:58:57.326Z,0.90
2022-11-17T13:01:30.462Z,1.38
2022-11-17T13:04:04.732Z,0.88
2022-11-17T13:06:36.954Z,1.02
2022-11-17T13:09:16.494Z,0.90
2022-11-17T13:11:59.586Z,0.98
2022-11-17T13:14:27.485Z,0.70
2022-11-17T13:16:55.664Z,1.05
2022-11-17T13:19:33.550Z,0.88
2022-11-17T13:22:05.849Z,0.80
2022-11-17T13:24:37.018Z,1.08
2022-11-17T13:27:09.374Z,1.02
2022-11-17T13:29:38.590Z,1.00
2022-11-17T13:32:14.423Z,0.93
2022-11-17T13:34:53.053Z,0.80
2022-11-17T13:37:25.620Z,1.10
2022-11-17T13:40:02.170Z,0.90
2022-11-17T13:42:34.457Z,1.02
2022-11-17T13:45:05.050Z,1.10
2022-11-17T13:47:39.957Z,1.13
2022-11-17T13:50:27.622Z,0.80
2022-11-17T13:52:58.360Z,1.77
2022-11-17T13:55:30.227Z,0.90
2022-11-17T13:58:03.532Z,1.40
2022-11-17T14:00:33.645Z,0.90
2022-11-17T14:03:04.834Z,1.00
2022-11-17T14:05:34.508Z,0.80
2022-11-17T14:08:14.239Z,1.00
2022-11-17T14:10:43.100Z,0.80
2022-11-17T14:13:20.282Z,1.00
2022-11-17T14:16:07.003Z,0.90
2022-11-17T14:18:39.132Z,1.23
2022-11-17T14:21:07.734Z,1.13
2022-11-17T14:23:38.527Z,0.73
2022-11-17T14:26:06.694Z,1.10
2022-11-17T14:28:36.301Z,1.10
2022-11-17T14:31:04.888Z,0.87
2022-11-17T14:33:34.737Z,0.60
2022-11-17T14:36:06.771Z,0.88
2022-11-17T14:38:34.871Z,1.00
2022-11-17T14:41:05.324Z,0.70
2022-11-17T14:43:34.996Z,0.90
2022-11-17T14:46:06.541Z,0.90
2022-11-17T14:48:34.554Z,0.95
2022-11-17T14:51:03.645Z,0.75
2022-11-17T14:53:32.708Z,0.70
2022-11-17T14:56:06.863Z,0.70
2022-11-17T14:58:36.924Z,1.75
2022-11-17T15:01:08.543Z,0.90
2022-11-17T15:03:37.915Z,0.90
2022-11-17T15:06:08.948Z,0.80
2022-11-17T15:08:37.531Z,0.65
2022-11-17T15:11:06.950Z,0.60
2022-11-17T15:13:34.987Z,0.63
2022-11-17T15:16:06.264Z,0.90
2022-11-17T15:18:34.606Z,0.70
2022-11-17T15:21:04.138Z,0.82
2022-11-17T15:23:34.867Z,1.05
2022-11-17T15:26:04.963Z,0.85
2022-11-17T15:28:35.695Z,0.98
2022-11-17T15:31:10.429Z,1.08
2022-11-17T15:33:40.676Z,0.90
2022-11-17T15:36:10.613Z,0.90
2022-11-17T15:38:38.766Z,1.20
2022-11-17T15:41:07.438Z,0.73
2022-11-17T15:43:39.430Z,0.82
2022-11-17T15:46:08.194Z,1.27
2022-11-17T15:48:40.463Z,1.00
2022-11-17T15:51:08.333Z,0.90
2022-11-17T15:53:37.138Z,0.80
2022-11-17T15:56:13.164Z,0.80
2022-11-17T15:58:42.184Z,1.00
2022-11-17T16:01:11.024Z,1.30
2022-11-17T16:03:39.244Z,0.90
2022-11-17T16:06:07.298Z,0.70
2022-11-17T16:08:35.534Z,0.93
2022-11-17T16:11:04.584Z,0.93
2022-11-17T16:13:33.556Z,0.82
2022-11-17T16:16:04.265Z,1.20
2022-11-17T16:18:34.286Z,1.10
2022-11-17T16:21:13.820Z,1.35
2022-11-17T16:23:46.000Z,1.05
2022-11-17T16:26:15.242Z,1.23
2022-11-17T16:28:43.224Z,0.95
2022-11-17T16:31:14.460Z,1.23
2022-11-17T16:33:44.871Z,1.20
2022-11-17T16:36:12.675Z,1.00
2022-11-17T16:38:49.894Z,1.10
2022-11-17T16:41:29.477Z,0.90
2022-11-17T16:43:58.900Z,1.02
2022-11-17T16:46:30.340Z,1.00
2022-11-17T16:49:02.175Z,1.02
2022-11-17T16:51:29.897Z,1.83
2022-11-17T16:53:59.447Z,0.90
2022-11-17T16:56:27.327Z,0.95
2022-11-17T16:58:55.234Z,0.90
2022-11-17T17:01:24.818Z,1.20
2022-11-17T17:04:00.053Z,1.07
2022-11-17T17:06:28.599Z,1.10
2022-11-17T17:08:57.020Z,0.82
2022-11-17T17:11:24.656Z,1.00
2022-11-17T17:13:52.817Z,1.10
2022-11-17T17:16:22.572Z,1.00
2022-11-17T17:18:55.784Z,1.20
2022-11-17T17:21:24.204Z,2.00
2022-11-17T17:23:52.216Z,1.17
2022-11-17T17:26:22.878Z,1.17
2022-11-17T17:28:51.474Z,1.40
2022-11-17T17:31:22.175Z,1.40
2022-11-17T17:33:52.079Z,1.50
2022-11-17T17:36:21.115Z,1.48
2022-11-17T17:38:55.191Z,1.40
2022-11-17T17:41:29.806Z,1.52
2022-11-17T17:44:08.389Z,1.48
2022-11-17T17:46:39.959Z,1.40
2022-11-17T17:49:13.619Z,1.60
2022-11-17T17:51:44.808Z,1.83
2022-11-17T17:54:17.185Z,1.60
2022-11-17T17:56:45.446Z,1.60
2022-11-17T17:59:17.043Z,1.95
2022-11-17T18:01:47.813Z,2.05
2022-11-17T18:06:47.199Z,1.77
2022-11-17T18:11:50.507Z,1.23
2022-11-17T18:14:24.767Z,1.50
2022-11-17T18:16:53.514Z,1.83
2022-11-17T18:19:29.775Z,1.67
2022-11-17T18:22:11.070Z,1.83
2022-11-17T18:24:41.666Z,1.75
2022-11-17T18:27:12.308Z,1.42
2022-11-17T18:32:58.985Z,1.60
2022-11-17T18:35:29.568Z,1.40
2022-11-17T18:37:58.388Z,1.70
2022-11-17T18:40:26.582Z,1.42
2022-11-17T18:42:56.015Z,1.45
2022-11-17T18:45:24.260Z,1.40
2022-11-17T18:47:52.266Z,1.20
2022-11-17T18:50:20.717Z,1.40
2022-11-17T18:52:48.556Z,1.40
2022-11-17T18:55:16.511Z,1.30
2022-11-17T18:57:45.244Z,1.50
2022-11-17T19:00:13.447Z,1.70
2022-11-17T19:02:45.251Z,1.55
2022-11-17T19:05:18.128Z,1.70
2022-11-17T19:07:47.519Z,2.00
2022-11-17T19:10:15.814Z,1.77
2022-11-17T19:12:44.503Z,1.88
2022-11-17T19:15:19.086Z,1.67
2022-11-17T19:17:49.583Z,1.58
2022-11-17T19:20:20.378Z,1.85
2022-11-17T19:22:48.205Z,1.90
2022-11-17T19:25:17.407Z,1.92
2022-11-17T19:27:45.352Z,1.73
2022-11-17T19:30:14.064Z,1.75
2022-11-17T19:32:42.209Z,2.17
2022-11-17T19:35:15.913Z,1.95
2022-11-17T19:37:47.749Z,1.95
2022-11-17T19:40:15.971Z,1.98
2022-11-17T19:42:44.294Z,2.05
2022-11-17T19:45:14.322Z,1.80
2022-11-17T19:47:41.975Z,1.77
2022-11-17T19:50:11.378Z,1.70
2022-11-17T19:52:39.374Z,1.80
2022-11-17T19:55:07.231Z,1.70
2022-11-17T19:57:34.990Z,1.80
2022-11-17T20:00:05.749Z,1.73
2022-11-17T20:02:40.222Z,2.13
2022-11-17T20:05:10.960Z,2.13
2022-11-17T20:07:40.081Z,1.80
2022-11-17T20:10:08.311Z,2.25
2022-11-17T20:12:36.298Z,2.22
2022-11-17T20:15:05.289Z,2.10
2022-11-17T20:17:35.563Z,2.05
2022-11-17T20:20:05.341Z,2.42
2022-11-17T20:22:33.273Z,2.33
2022-11-17T20:25:03.848Z,2.05
2022-11-17T20:27:34.262Z,2.08
2022-11-17T20:30:05.027Z,2.40
2022-11-17T20:32:33.514Z,2.25
2022-11-17T20:35:01.029Z,2.33
2022-11-17T20:37:42.042Z,2.67
2022-11-17T20:40:10.105Z,2.38
2022-11-17T20:42:38.747Z,2.30
2022-11-17T20:45:06.905Z,2.65
2022-11-17T20:47:34.716Z,2.05
2022-11-17T20:50:05.335Z,2.70
2022-11-17T20:55:03.156Z,2.70
2022-11-17T20:57:30.986Z,2.80
2022-11-17T21:00:05.967Z,2.20
2022-11-17T21:02:34.792Z,2.53
2022-11-17T21:05:03.167Z,2.40
2022-11-17T21:07:31.081Z,2.50
2022-11-17T21:10:10.773Z,2.55
2022-11-17T21:12:39.822Z,2.25
2022-11-17T21:15:07.943Z,2.63
2022-11-17T21:18:02.165Z,2.70
2022-11-17T21:20:30.478Z,2.30
2022-11-17T21:22:58.073Z,2.60
2022-11-17T21:25:26.052Z,2.72
2022-11-17T21:27:53.583Z,2.78
2022-11-17T21:30:21.058Z,2.47
2022-11-17T21:32:48.740Z,2.70
2022-11-17T21:35:16.644Z,2.45
2022-11-17T21:37:44.378Z,2.90
2022-11-17T21:40:12.647Z,2.83
2022-11-17T21:42:40.952Z,2.40
2022-11-17T21:45:09.061Z,2.50
2022-11-17T21:47:36.706Z,2.58
2022-11-17T21:50:04.809Z,2.75
2022-11-17T21:52:33.780Z,2.30
2022-11-17T21:55:02.444Z,2.80
2022-11-17T21:57:29.935Z,2.70
2022-11-17T21:59:57.470Z,2.70
2022-11-17T22:02:26.273Z,3.47
2022-11-17T22:04:54.392Z,2.60
2022-11-17T22:07:22.100Z,3.05
2022-11-17T22:09:49.680Z,2.67
2022-11-17T22:12:17.331Z,3.05
2022-11-17T22:14:45.165Z,3.20
2022-11-17T22:17:13.440Z,2.50
2022-11-17T22:19:41.031Z,2.70
2022-11-17T22:22:09.614Z,3.00
2022-11-17T22:24:39.629Z,3.28
2022-11-17T22:27:07.907Z,4.35
2022-11-17T22:29:35.974Z,3.03
2022-11-17T22:32:10.105Z,3.08
2022-11-17T22:34:37.670Z,2.88
2022-11-17T22:37:05.498Z,3.22
2022-11-17T22:39:34.560Z,2.80
2022-11-17T22:42:03.581Z,2.50
2022-11-17T22:44:32.101Z,3.30
2022-11-17T22:47:00.490Z,2.38
2022-11-17T22:49:28.284Z,2.72
2022-11-17T22:52:04.767Z,2.75
2022-11-17T22:54:34.483Z,3.15
2022-11-17T22:57:04.148Z,2.83
2022-11-17T22:59:33.376Z,3.77
2022-11-17T23:02:02.485Z,3.25
2022-11-17T23:04:30.049Z,4.00
2022-11-17T23:06:57.757Z,2.72
2022-11-17T23:09:25.292Z,3.28
2022-11-17T23:11:53.006Z,3.33
2022-11-17T23:14:21.032Z,3.40
2022-11-17T23:16:48.699Z,3.80
2022-11-17T23:19:16.689Z,3.78
2022-11-17T23:21:44.761Z,3.10
2022-11-17T23:24:14.615Z,3.08
2022-11-17T23:26:42.924Z,3.15
2022-11-17T23:29:11.026Z,3.25
2022-11-17T23:31:39.202Z,3.60
2022-11-17T23:34:08.787Z,3.67
2022-11-17T23:36:36.479Z,3.50
2022-11-17T23:39:04.648Z,3.80
2022-11-17T23:41:34.452Z,4.18
2022-11-17T23:44:03.599Z,3.38
2022-11-17T23:46:32.855Z,3.80
2022-11-17T23:49:00.430Z,3.53
2022-11-17T23:51:30.084Z,3.40
2022-11-17T23:54:04.275Z,3.72
2022-11-17T23:56:35.755Z,3.72
2022-11-17T23:59:05.412Z,3.42
